Time;durP1;ratioP1;P1;durP2;ratioP2;P2;SDS_P1;SDS_P2;PMS_P1;PMS_P2;Temp;Humidity;BMP_temperature;BMP_pressure;BME280_temperature;BME280_humidity;BME280_pressure;Samples;Min_cycle;Max_cycle;Signal;HPM_P1;HPM_P2
2022/07/12 00:02:03;;;;;;;4.57;3.75;;;;;;;;;;5017627;28;20034;-76
2022/07/12 00:04:29;;;;;;;4.00;3.60;;;;;;;;;;5017787;28;20050;-76
2022/07/12 00:06:55;;;;;;;6.32;4.18;;;;;;;;;;5017852;28;20046;-76
2022/07/12 00:09:21;;;;;;;5.30;4.00;;;;;;;;;;5017854;28;20037;-76
2022/07/12 00:11:47;;;;;;;6.50;3.67;;;;;;;;;;5017810;28;20087;-76
2022/07/12 00:14:14;;;;;;;5.47;4.32;;;;;;;;;;5018040;28;20089;-76
2022/07/12 00:16:40;;;;;;;4.20;3.90;;;;;;;;;;5018016;28;20042;-76
2022/07/12 00:19:06;;;;;;;5.90;4.03;;;;;;;;;;5017886;28;20080;-76
2022/07/12 00:21:33;;;;;;;4.95;3.78;;;;;;;;;;5018498;28;20041;-76
2022/07/12 00:23:59;;;;;;;4.35;3.95;;;;;;;;;;5017736;28;20046;-76
2022/07/12 00:26:25;;;;;;;4.80;4.03;;;;;;;;;;5017850;28;20578;-76
2022/07/12 00:28:51;;;;;;;5.85;4.50;;;;;;;;;;5017283;28;20141;-76
2022/07/12 00:31:17;;;;;;;6.80;4.20;;;;;;;;;;5017494;28;20161;-76
2022/07/12 00:33:44;;;;;;;5.30;4.50;;;;;;;;;;5018218;28;20056;-76
2022/07/12 00:36:10;;;;;;;6.32;4.38;;;;;;;;;;5017582;28;20087;-76
2022/07/12 00:38:36;;;;;;;4.53;4.10;;;;;;;;;;5017282;28;20404;-76
2022/07/12 00:41:03;;;;;;;6.38;3.90;;;;;;;;;;5017584;28;20038;-76
2022/07/12 00:43:29;;;;;;;6.40;4.25;;;;;;;;;;5017611;28;20505;-76
2022/07/12 00:45:55;;;;;;;5.25;4.25;;;;;;;;;;5017495;28;20488;-76
2022/07/12 00:48:21;;;;;;;4.68;4.13;;;;;;;;;;5017348;28;20103;-76
2022/07/12 00:50:48;;;;;;;4.00;3.70;;;;;;;;;;5017409;28;20041;-76
2022/07/12 00:53:16;;;;;;;5.95;4.55;;;;;;;;;;5017402;28;20046;-76
2022/07/12 00:55:42;;;;;;;4.38;3.97;;;;;;;;;;5017202;28;20038;-76
2022/07/12 00:58:08;;;;;;;4.70;4.30;;;;;;;;;;5017122;28;20049;-76
2022/07/12 01:00:34;;;;;;;4.68;4.03;;;;;;;;;;5017219;28;20037;-76
2022/07/12 01:03:01;;;;;;;5.03;4.38;;;;;;;;;;5017188;28;20481;-76
2022/07/12 01:05:28;;;;;;;6.53;4.55;;;;;;;;;;5017153;28;20041;-76
2022/07/12 01:07:55;;;;;;;5.07;4.20;;;;;;;;;;5017027;28;20048;-76
2022/07/12 01:10:21;;;;;;;5.00;4.50;;;;;;;;;;5016730;28;20504;-76
2022/07/12 01:12:47;;;;;;;5.55;4.18;;;;;;;;;;5016693;28;20068;-76
2022/07/12 01:15:14;;;;;;;6.93;4.35;;;;;;;;;;5016658;28;20046;-76
2022/07/12 01:17:40;;;;;;;5.75;4.05;;;;;;;;;;5016604;28;20042;-76
2022/07/12 01:20:07;;;;;;;5.22;4.68;;;;;;;;;;5016550;28;20046;-76
2022/07/12 01:22:35;;;;;;;7.28;4.55;;;;;;;;;;5016137;28;20091;-76
2022/07/12 01:25:02;;;;;;;5.13;4.53;;;;;;;;;;5016653;28;20042;-76
2022/07/12 01:27:28;;;;;;;4.75;4.35;;;;;;;;;;5016287;28;20127;-76
2022/07/12 01:29:55;;;;;;;5.30;4.30;;;;;;;;;;5015929;28;20048;-76
2022/07/12 01:32:24;;;;;;;7.00;4.70;;;;;;;;;;5015992;28;20121;-76
2022/07/12 01:34:51;;;;;;;5.82;4.20;;;;;;;;;;5016224;28;20535;-76
2022/07/12 01:37:18;;;;;;;6.78;4.60;;;;;;;;;;5015992;28;20042;-76
2022/07/12 01:39:44;;;;;;;5.20;4.35;;;;;;;;;;5016083;28;20128;-76
2022/07/12 01:42:11;;;;;;;6.53;4.85;;;;;;;;;;5015874;28;20042;-76
2022/07/12 01:44:37;;;;;;;7.47;4.70;;;;;;;;;;5016093;28;20046;-76
2022/07/12 01:47:03;;;;;;;8.63;4.53;;;;;;;;;;5016356;28;20042;-76
2022/07/12 01:49:29;;;;;;;5.18;4.50;;;;;;;;;;5015729;28;20044;-76
2022/07/12 01:51:56;;;;;;;7.05;4.40;;;;;;;;;;5015973;28;20049;-76
2022/07/12 01:54:24;;;;;;;4.88;4.38;;;;;;;;;;5016267;28;20073;-76
2022/07/12 01:56:50;;;;;;;6.85;4.90;;;;;;;;;;5015889;28;20526;-76
2022/07/12 01:59:16;;;;;;;21.25;5.30;;;;;;;;;;5015662;28;20048;-76
2022/07/12 02:01:43;;;;;;;5.10;4.60;;;;;;;;;;5015519;28;20064;-76
2022/07/12 02:04:09;;;;;;;8.20;5.18;;;;;;;;;;5015960;28;20048;-76
2022/07/12 02:06:36;;;;;;;5.53;4.65;;;;;;;;;;5014919;28;20042;-76
2022/07/12 02:09:02;;;;;;;5.50;4.45;;;;;;;;;;5015789;28;20053;-76
2022/07/12 02:11:28;;;;;;;5.25;4.75;;;;;;;;;;5015661;28;20049;-76
2022/07/12 02:13:54;;;;;;;5.45;4.63;;;;;;;;;;5015765;28;20068;-76
2022/07/12 02:16:21;;;;;;;6.60;4.88;;;;;;;;;;5015860;28;20046;-76
2022/07/12 02:18:47;;;;;;;5.72;5.13;;;;;;;;;;5015860;28;20045;-76
2022/07/12 02:21:13;;;;;;;5.18;4.68;;;;;;;;;;5016018;28;20042;-76
2022/07/12 02:23:39;;;;;;;4.93;4.53;;;;;;;;;;5015926;28;20128;-76
2022/07/12 02:26:05;;;;;;;5.68;4.60;;;;;;;;;;5015947;28;20518;-76
2022/07/12 02:28:31;;;;;;;5.18;4.57;;;;;;;;;;5015371;28;20045;-76
2022/07/12 02:30:59;;;;;;;6.97;4.88;;;;;;;;;;5015862;28;20037;-76
2022/07/12 02:33:25;;;;;;;6.63;4.90;;;;;;;;;;4998227;28;20477;-76
2022/07/12 02:35:51;;;;;;;6.57;5.57;;;;;;;;;;5015107;28;20045;-76
2022/07/12 02:38:20;;;;;;;5.55;5.03;;;;;;;;;;5015416;28;20038;-76
2022/07/12 02:40:55;;;;;;;5.40;4.90;;;;;;;;;;5015172;28;20045;-76
2022/07/12 02:43:27;;;;;;;4.95;4.55;;;;;;;;;;5014702;28;20042;-76
2022/07/12 02:45:54;;;;;;;6.10;4.85;;;;;;;;;;5015355;28;20042;-76
2022/07/12 02:48:20;;;;;;;6.93;5.65;;;;;;;;;;5014610;28;20053;-76
2022/07/12 02:50:47;;;;;;;9.68;5.10;;;;;;;;;;5015418;28;20046;-76
2022/07/12 02:53:13;;;;;;;5.55;5.05;;;;;;;;;;5015772;28;20111;-76
2022/07/12 02:55:39;;;;;;;5.85;4.93;;;;;;;;;;5014898;28;20045;-76
2022/07/12 02:58:05;;;;;;;5.57;5.18;;;;;;;;;;5014638;28;20038;-76
2022/07/12 03:00:32;;;;;;;6.53;5.00;;;;;;;;;;5014858;28;20048;-76
2022/07/12 03:02:59;;;;;;;8.55;5.20;;;;;;;;;;5015127;28;20042;-76
2022/07/12 03:05:25;;;;;;;5.82;5.22;;;;;;;;;;5014840;28;20046;-76
2022/07/12 03:07:51;;;;;;;5.40;4.90;;;;;;;;;;5014712;28;20104;-76
2022/07/12 03:10:17;;;;;;;8.38;5.18;;;;;;;;;;5014749;28;20046;-76
2022/07/12 03:12:43;;;;;;;5.60;4.63;;;;;;;;;;5015011;28;20037;-76
2022/07/12 03:15:09;;;;;;;5.72;4.90;;;;;;;;;;5014306;28;20418;-76
2022/07/12 03:17:35;;;;;;;5.53;5.05;;;;;;;;;;5014431;28;20041;-76
2022/07/12 03:20:04;;;;;;;5.43;4.93;;;;;;;;;;5017736;28;20037;-76
2022/07/12 03:22:30;;;;;;;5.55;5.15;;;;;;;;;;5018499;28;20057;-76
2022/07/12 03:24:56;;;;;;;5.30;4.82;;;;;;;;;;5018882;28;20562;-76
2022/07/12 03:27:22;;;;;;;5.25;4.82;;;;;;;;;;5018598;28;20133;-76
2022/07/12 03:29:48;;;;;;;8.40;5.00;;;;;;;;;;5018334;28;20500;-76
2022/07/12 03:32:14;;;;;;;5.38;4.88;;;;;;;;;;5018624;28;20049;-76
2022/07/12 03:34:41;;;;;;;8.35;4.97;;;;;;;;;;5018737;28;20056;-76
2022/07/12 03:37:07;;;;;;;5.50;5.00;;;;;;;;;;5018522;28;20037;-76
2022/07/12 03:39:33;;;;;;;6.47;5.03;;;;;;;;;;5018204;28;20042;-76
2022/07/12 03:41:59;;;;;;;6.22;5.30;;;;;;;;;;5018408;28;20527;-76
2022/07/12 03:44:25;;;;;;;5.55;5.15;;;;;;;;;;5018507;28;20042;-76
2022/07/12 03:46:51;;;;;;;8.02;5.70;;;;;;;;;;5018272;28;20052;-76
2022/07/12 03:49:17;;;;;;;5.55;5.10;;;;;;;;;;5017988;28;20037;-76
2022/07/12 03:51:43;;;;;;;5.85;5.25;;;;;;;;;;5017924;28;20045;-76
2022/07/12 03:54:10;;;;;;;5.45;4.95;;;;;;;;;;5018590;28;20116;-76
2022/07/12 03:59:21;;;;;;;5.53;5.03;;;;;;;;;;5017712;28;20476;-76
2022/07/12 04:01:47;;;;;;;6.00;5.20;;;;;;;;;;5017774;28;20048;-76
2022/07/12 04:04:13;;;;;;;7.88;5.30;;;;;;;;;;5018197;28;20139;-76
2022/07/12 04:06:39;;;;;;;7.15;5.50;;;;;;;;;;5017622;28;20508;-76
2022/07/12 04:09:09;;;;;;;6.30;5.65;;;;;;;;;;5018134;28;20077;-76
2022/07/12 04:11:35;;;;;;;7.05;5.35;;;;;;;;;;5017553;28;20037;-76
2022/07/12 04:14:01;;;;;;;5.88;5.38;;;;;;;;;;5017729;28;20050;-76
2022/07/12 04:16:29;;;;;;;6.80;5.30;;;;;;;;;;5017666;28;20042;-76
2022/07/12 04:18:55;;;;;;;5.75;5.18;;;;;;;;;;5017324;28;20048;-76
2022/07/12 04:21:22;;;;;;;6.15;5.22;;;;;;;;;;5017410;28;20041;-76
2022/07/12 04:23:48;;;;;;;6.68;5.97;;;;;;;;;;5017319;28;20038;-76
2022/07/12 04:26:14;;;;;;;6.13;5.55;;;;;;;;;;5017620;28;20038;-76
2022/07/12 04:28:41;;;;;;;7.18;5.63;;;;;;;;;;5017317;28;20061;-76
2022/07/12 04:31:07;;;;;;;5.70;5.20;;;;;;;;;;5017083;28;20073;-76
2022/07/12 04:33:33;;;;;;;7.97;5.57;;;;;;;;;;5017668;28;20045;-76
2022/07/12 04:36:00;;;;;;;5.85;5.00;;;;;;;;;;5017169;28;20396;-76
2022/07/12 04:38:26;;;;;;;7.85;5.70;;;;;;;;;;5017336;28;20562;-76
2022/07/12 04:40:52;;;;;;;6.70;5.25;;;;;;;;;;5017330;28;20620;-76
2022/07/12 04:43:18;;;;;;;8.30;5.32;;;;;;;;;;5017535;28;20052;-76
2022/07/12 04:45:45;;;;;;;9.05;5.28;;;;;;;;;;5017794;28;20108;-76
2022/07/12 04:48:11;;;;;;;6.35;5.85;;;;;;;;;;5017698;28;20042;-76
2022/07/12 04:50:38;;;;;;;5.70;5.20;;;;;;;;;;5016814;28;20128;-76
2022/07/12 04:53:04;;;;;;;5.75;5.15;;;;;;;;;;5017408;28;20046;-76
2022/07/12 04:55:30;;;;;;;7.95;4.97;;;;;;;;;;5016739;28;20045;-76
2022/07/12 04:57:56;;;;;;;6.05;5.18;;;;;;;;;;5016717;28;20100;-76
2022/07/12 05:00:22;;;;;;;6.22;5.28;;;;;;;;;;5016753;28;20134;-76
2022/07/12 05:02:49;;;;;;;6.28;5.68;;;;;;;;;;5017005;28;20124;-76
2022/07/12 05:05:15;;;;;;;6.07;5.57;;;;;;;;;;5017030;28;20096;-76
2022/07/12 05:07:41;;;;;;;7.07;5.60;;;;;;;;;;5016775;28;20072;-76
2022/07/12 05:10:08;;;;;;;9.55;5.35;;;;;;;;;;5016851;28;20034;-75
2022/07/12 05:12:37;;;;;;;5.35;4.95;;;;;;;;;;5016746;28;20037;-76
2022/07/12 05:15:04;;;;;;;8.43;5.88;;;;;;;;;;5016307;28;20061;-76
2022/07/12 05:17:30;;;;;;;5.53;5.03;;;;;;;;;;5016618;28;20041;-75
2022/07/12 05:19:56;;;;;;;6.10;5.35;;;;;;;;;;5016774;28;20042;-75
2022/07/12 05:22:23;;;;;;;5.95;5.35;;;;;;;;;;5016274;28;20069;-75
2022/07/12 05:24:49;;;;;;;5.30;4.65;;;;;;;;;;5016164;28;20042;-75
2022/07/12 05:27:15;;;;;;;9.18;5.18;;;;;;;;;;5016404;28;20066;-75
2022/07/12 05:29:42;;;;;;;5.43;4.60;;;;;;;;;;5012410;28;20567;-75
2022/07/12 05:32:08;;;;;;;6.35;4.78;;;;;;;;;;4989174;28;20070;-75
2022/07/12 05:34:34;;;;;;;4.50;4.13;;;;;;;;;;4985148;28;20051;-75
2022/07/12 05:37:00;;;;;;;5.18;4.68;;;;;;;;;;5000042;28;20038;-76
2022/07/12 05:39:27;;;;;;;4.65;4.20;;;;;;;;;;5004433;28;20046;-75
2022/07/12 05:41:53;;;;;;;5.78;4.45;;;;;;;;;;4995710;28;20042;-75
2022/07/12 05:44:19;;;;;;;5.43;4.30;;;;;;;;;;4996048;28;20046;-75
2022/07/12 05:46:46;;;;;;;5.93;4.07;;;;;;;;;;4995749;28;20049;-75
2022/07/12 05:49:12;;;;;;;12.57;4.38;;;;;;;;;;4995609;28;20046;-76
2022/07/12 05:54:24;;;;;;;5.93;3.28;;;;;;;;;;5001191;28;20083;-76
2022/07/12 05:56:50;;;;;;;5.63;3.35;;;;;;;;;;5004942;28;20042;-76
2022/07/12 05:59:17;;;;;;;5.05;3.00;;;;;;;;;;5003998;28;20038;-76
2022/07/12 06:01:43;;;;;;;4.13;3.10;;;;;;;;;;5001602;28;20038;-76
2022/07/12 06:04:09;;;;;;;8.98;3.17;;;;;;;;;;5005504;28;20191;-76
2022/07/12 06:06:35;;;;;;;5.63;3.40;;;;;;;;;;5008289;28;20046;-77
2022/07/12 06:09:02;;;;;;;3.97;3.13;;;;;;;;;;5015868;28;20064;-77
2022/07/12 06:11:28;;;;;;;5.50;2.92;;;;;;;;;;5001276;28;20065;-76
2022/07/12 06:13:54;;;;;;;4.97;3.00;;;;;;;;;;4997935;28;20058;-74
2022/07/12 06:16:20;;;;;;;4.70;3.00;;;;;;;;;;4992811;28;20038;-78
2022/07/12 06:18:46;;;;;;;3.38;2.83;;;;;;;;;;4986658;28;20058;-77
2022/07/12 06:21:12;;;;;;;4.50;3.00;;;;;;;;;;4992811;28;20497;-78
2022/07/12 06:23:39;;;;;;;2.83;2.63;;;;;;;;;;4994412;28;20065;-78
2022/07/12 06:26:05;;;;;;;4.07;2.90;;;;;;;;;;4994636;28;20038;-77
2022/07/12 06:28:31;;;;;;;3.63;2.90;;;;;;;;;;4994852;28;20050;-77
2022/07/12 06:30:58;;;;;;;3.25;2.40;;;;;;;;;;4992950;28;20086;-78
2022/07/12 06:33:24;;;;;;;4.30;2.40;;;;;;;;;;4994535;28;20093;-77
2022/07/12 06:35:50;;;;;;;4.35;2.85;;;;;;;;;;4995041;28;20070;-77
2022/07/12 06:38:17;;;;;;;3.78;2.85;;;;;;;;;;4995288;28;20042;-77
2022/07/12 06:40:43;;;;;;;3.60;2.60;;;;;;;;;;4995294;28;20042;-77
2022/07/12 06:43:13;;;;;;;2.75;2.55;;;;;;;;;;4994746;28;20050;-77
2022/07/12 06:45:39;;;;;;;;;;;;;;;;;;4995607;28;20104;-76
2022/07/12 06:48:06;;;;;;;7.93;2.80;;;;;;;;;;4991569;28;19926;-77
2022/07/12 06:50:32;;;;;;;5.25;2.75;;;;;;;;;;4990639;28;20046;-78
2022/07/12 06:52:58;;;;;;;8.07;3.00;;;;;;;;;;4994294;28;20038;-77
2022/07/12 06:55:25;;;;;;;4.45;2.50;;;;;;;;;;4989797;28;20042;-77
2022/07/12 06:57:51;;;;;;;5.88;2.70;;;;;;;;;;4994782;28;20046;-77
2022/07/12 07:00:17;;;;;;;3.22;2.50;;;;;;;;;;4994580;28;20497;-77
2022/07/12 07:02:43;;;;;;;5.70;2.50;;;;;;;;;;4994952;28;20135;-77
2022/07/12 07:05:11;;;;;;;5.35;2.58;;;;;;;;;;4984345;28;20501;-77
2022/07/12 07:07:37;;;;;;;4.45;2.55;;;;;;;;;;4992514;28;20045;-77
2022/07/12 07:10:03;;;;;;;3.97;2.55;;;;;;;;;;4993780;28;20058;-77
2022/07/12 07:12:29;;;;;;;4.65;2.67;;;;;;;;;;4989685;28;20571;-77
2022/07/12 07:14:55;;;;;;;4.13;2.58;;;;;;;;;;4995168;28;20158;-77
2022/07/12 07:17:22;;;;;;;4.25;2.30;;;;;;;;;;4995416;28;20081;-77
2022/07/12 07:19:48;;;;;;;3.35;2.45;;;;;;;;;;4994363;28;20054;-77
2022/07/12 07:22:14;;;;;;;2.33;2.00;;;;;;;;;;4990471;28;20038;-78
2022/07/12 07:24:40;;;;;;;2.67;2.28;;;;;;;;;;4996074;28;20531;-76
2022/07/12 07:27:07;;;;;;;5.10;2.30;;;;;;;;;;4995245;28;20050;-77
2022/07/12 07:32:19;;;;;;;3.83;2.40;;;;;;;;;;4993752;28;20088;-78
2022/07/12 07:34:45;;;;;;;5.05;2.40;;;;;;;;;;4986919;28;20502;-78
2022/07/12 07:37:11;;;;;;;4.97;2.45;;;;;;;;;;4990180;28;20042;-78
2022/07/12 07:39:37;;;;;;;5.68;2.40;;;;;;;;;;4997908;28;20037;-77
2022/07/12 07:42:04;;;;;;;4.38;2.65;;;;;;;;;;5014384;28;20037;-78
2022/07/12 07:44:30;;;;;;;4.25;2.25;;;;;;;;;;5013645;28;20038;-77
2022/07/12 07:46:56;;;;;;;8.25;2.60;;;;;;;;;;5014030;28;20037;-76
2022/07/12 07:49:23;;;;;;;3.38;2.38;;;;;;;;;;5003239;28;20054;-77
2022/07/12 07:51:49;;;;;;;4.50;2.60;;;;;;;;;;4987187;28;20493;-77
2022/07/12 07:54:15;;;;;;;6.93;2.17;;;;;;;;;;4992597;28;20575;-77
2022/07/12 07:56:41;;;;;;;4.40;2.05;;;;;;;;;;4991551;28;20039;-76
2022/07/12 07:59:07;;;;;;;6.65;2.28;;;;;;;;;;4997398;28;20053;-77
2022/07/12 08:01:45;;;;;;;3.15;2.20;;;;;;;;;;4993304;28;20046;-77
2022/07/12 08:04:12;;;;;;;2.75;2.10;;;;;;;;;;4994811;28;20046;-77
2022/07/12 08:06:38;;;;;;;5.35;2.13;;;;;;;;;;4997905;28;20121;-77
2022/07/12 08:09:05;;;;;;;2.88;1.80;;;;;;;;;;4997679;28;20505;-76
2022/07/12 08:11:31;;;;;;;2.45;1.50;;;;;;;;;;4997300;28;20074;-77
2022/07/12 08:13:58;;;;;;;1.92;1.50;;;;;;;;;;4997395;28;20058;-76
2022/07/12 08:16:24;;;;;;;5.13;1.50;;;;;;;;;;4998318;28;20100;-77
2022/07/12 08:18:50;;;;;;;1.63;1.50;;;;;;;;;;4996308;28;20070;-76
2022/07/12 08:21:16;;;;;;;1.70;1.50;;;;;;;;;;4978416;28;20066;-76
2022/07/12 08:23:42;;;;;;;3.20;1.70;;;;;;;;;;4983747;28;20057;-75
2022/07/12 08:26:08;;;;;;;5.13;1.70;;;;;;;;;;4997649;28;20037;-76
2022/07/12 08:28:34;;;;;;;2.58;1.52;;;;;;;;;;4993310;28;20046;-75
2022/07/12 08:31:01;;;;;;;2.40;1.73;;;;;;;;;;4995033;28;20045;-78
2022/07/12 08:33:27;;;;;;;4.93;1.50;;;;;;;;;;4997364;28;20096;-78
2022/07/12 08:35:53;;;;;;;5.90;2.00;;;;;;;;;;4996272;28;20128;-78
2022/07/12 08:38:20;;;;;;;5.97;1.85;;;;;;;;;;4996853;28;20061;-77
2022/07/12 08:40:46;;;;;;;2.33;1.60;;;;;;;;;;4997055;28;20064;-76
2022/07/12 08:43:12;;;;;;;2.00;1.65;;;;;;;;;;4998285;28;20057;-77
2022/07/12 08:45:40;;;;;;;4.47;2.10;;;;;;;;;;4997897;28;20125;-78
2022/07/12 08:48:07;;;;;;;4.20;1.63;;;;;;;;;;4997081;28;20489;-77
2022/07/12 08:50:33;;;;;;;4.40;1.50;;;;;;;;;;4997911;28;20496;-78
2022/07/12 08:52:59;;;;;;;5.78;1.80;;;;;;;;;;4982798;28;20050;-78
2022/07/12 08:55:28;;;;;;;3.08;1.73;;;;;;;;;;4978021;28;20046;-76
2022/07/12 08:57:55;;;;;;;7.10;1.80;;;;;;;;;;4978046;28;20070;-77
2022/07/12 09:00:22;;;;;;;7.20;1.90;;;;;;;;;;4977914;28;20050;-76
2022/07/12 09:02:48;;;;;;;3.85;1.77;;;;;;;;;;4978481;28;20462;-78
2022/07/12 09:05:16;;;;;;;3.80;2.00;;;;;;;;;;4996451;28;20089;-77
2022/07/12 09:07:43;;;;;;;3.28;1.70;;;;;;;;;;4997230;28;20034;-76
2022/07/12 09:10:10;;;;;;;12.23;2.22;;;;;;;;;;4996664;28;20446;-77
2022/07/12 09:12:36;;;;;;;7.03;1.83;;;;;;;;;;4984559;28;20039;-76
2022/07/12 09:15:19;;;;;;;6.25;1.67;;;;;;;;;;4977602;28;20129;-77
2022/07/12 09:17:57;;;;;;;4.22;1.65;;;;;;;;;;4980771;28;20513;-77
2022/07/12 09:20:28;;;;;;;5.07;1.85;;;;;;;;;;4995099;28;20049;-77
2022/07/12 09:22:54;;;;;;;;;;;;;;;;;;4997088;28;20042;-76
2022/07/12 09:25:21;;;;;;;4.85;1.70;;;;;;;;;;4996818;28;19910;-76
2022/07/12 09:27:58;;;;;;;4.88;1.95;;;;;;;;;;4988626;28;20536;-76
2022/07/12 09:30:25;;;;;;;3.33;1.70;;;;;;;;;;4980189;28;20062;-76
2022/07/12 09:38:21;;;;;;;3.63;1.70;;;;;;;;;;4976716;28;20046;-77
2022/07/12 09:40:48;;;;;;;6.90;1.77;;;;;;;;;;4977566;28;20042;-78
2022/07/12 09:43:15;;;;;;;4.70;1.70;;;;;;;;;;4984478;28;20049;-77
2022/07/12 09:45:43;;;;;;;6.05;1.77;;;;;;;;;;4995603;28;20034;-77
2022/07/12 09:48:16;;;;;;;4.97;1.95;;;;;;;;;;4993995;28;20551;-78
2022/07/12 09:50:45;;;;;;;3.30;1.60;;;;;;;;;;4994389;28;20130;-76
2022/07/12 09:53:15;;;;;;;2.42;1.88;;;;;;;;;;4990099;28;20038;-77
2022/07/12 09:55:42;;;;;;;4.18;1.95;;;;;;;;;;4985322;28;20574;-77
2022/07/12 09:58:09;;;;;;;4.63;1.80;;;;;;;;;;4994406;28;20535;-77
2022/07/12 10:00:36;;;;;;;2.22;1.65;;;;;;;;;;4993183;28;20105;-78
2022/07/12 10:03:04;;;;;;;6.60;1.80;;;;;;;;;;4993046;28;20102;-77
2022/07/12 10:05:30;;;;;;;2.00;1.80;;;;;;;;;;4994035;28;20054;-76
2022/07/12 10:07:56;;;;;;;3.20;1.75;;;;;;;;;;4994273;28;20125;-77
2022/07/12 10:10:23;;;;;;;4.20;1.83;;;;;;;;;;4994509;28;20129;-77
2022/07/12 10:12:49;;;;;;;2.05;1.75;;;;;;;;;;4994493;28;20744;-77
2022/07/12 10:15:18;;;;;;;3.40;1.88;;;;;;;;;;4985184;28;20077;-77
2022/07/12 10:17:55;;;;;;;5.72;1.85;;;;;;;;;;4991765;28;20052;-77
2022/07/12 10:20:23;;;;;;;3.35;2.10;;;;;;;;;;4995218;28;20493;-77
2022/07/12 10:22:50;;;;;;;2.60;1.80;;;;;;;;;;4995508;28;20038;-78
2022/07/12 10:25:26;;;;;;;2.75;2.10;;;;;;;;;;4995617;28;20046;-77
2022/07/12 10:27:52;;;;;;;4.82;2.70;;;;;;;;;;4995330;28;20489;-77
2022/07/12 10:30:19;;;;;;;4.00;2.10;;;;;;;;;;4994944;28;20130;-77
2022/07/12 10:32:46;;;;;;;4.22;2.42;;;;;;;;;;4995327;28;20050;-77
2022/07/12 10:35:14;;;;;;;2.85;2.10;;;;;;;;;;4995401;28;20505;-78
2022/07/12 10:37:40;;;;;;;5.22;1.98;;;;;;;;;;4995623;28;20092;-77
2022/07/12 10:40:12;;;;;;;2.80;2.10;;;;;;;;;;4993938;28;20052;-77
2022/07/12 10:42:39;;;;;;;2.65;2.10;;;;;;;;;;4994389;28;20573;-77
2022/07/12 10:45:13;;;;;;;6.03;2.38;;;;;;;;;;4993497;28;20069;-77
2022/07/12 10:47:58;;;;;;;5.13;2.30;;;;;;;;;;4993353;28;20109;-77
2022/07/12 10:53:21;;;;;;;3.83;2.13;;;;;;;;;;4995007;28;20037;-77
2022/07/12 10:56:06;;;;;;;3.75;2.15;;;;;;;;;;4994854;28;20069;-77
2022/07/12 10:58:43;;;;;;;4.05;2.33;;;;;;;;;;4995067;28;20042;-78
2022/07/12 11:01:13;;;;;;;4.47;2.17;;;;;;;;;;4985827;28;20038;-77
2022/07/12 11:03:40;;;;;;;3.45;2.20;;;;;;;;;;4991803;28;20050;-77
2022/07/12 11:06:07;;;;;;;2.35;2.15;;;;;;;;;;4993596;28;20034;-77
2022/07/12 11:08:47;;;;;;;7.95;2.47;;;;;;;;;;4991065;28;20121;-77
2022/07/12 11:11:13;;;;;;;4.70;1.90;;;;;;;;;;4993730;28;20042;-77
2022/07/12 11:13:39;;;;;;;3.03;2.13;;;;;;;;;;4994066;28;20046;-77
2022/07/12 11:16:06;;;;;;;2.00;1.88;;;;;;;;;;4992807;28;20452;-77
2022/07/12 11:18:33;;;;;;;5.93;2.58;;;;;;;;;;4994609;28;20081;-78
2022/07/12 11:21:00;;;;;;;2.83;1.85;;;;;;;;;;4994086;28;20065;-78
2022/07/12 11:23:26;;;;;;;4.53;2.20;;;;;;;;;;4994366;28;20041;-76
2022/07/12 11:26:11;;;;;;;4.25;2.33;;;;;;;;;;4994014;28;20117;-76
2022/07/12 11:28:38;;;;;;;3.15;1.90;;;;;;;;;;4992693;28;20046;-76
2022/07/12 11:31:14;;;;;;;6.72;1.75;;;;;;;;;;4993835;28;20050;-77
2022/07/12 11:33:41;;;;;;;4.07;2.28;;;;;;;;;;4992757;28;20042;-76
2022/07/12 11:36:12;;;;;;;3.55;2.20;;;;;;;;;;4994427;28;20104;-77
2022/07/12 11:38:40;;;;;;;3.38;1.88;;;;;;;;;;4979012;28;20122;-78
2022/07/12 11:41:07;;;;;;;3.80;2.30;;;;;;;;;;4997363;28;20049;-78
2022/07/12 11:43:33;;;;;;;4.85;2.28;;;;;;;;;;5005338;28;20041;-78
2022/07/12 11:46:00;;;;;;;4.28;2.13;;;;;;;;;;5000403;28;20093;-78
2022/07/12 11:48:29;;;;;;;3.17;2.20;;;;;;;;;;4996797;28;20053;-78
2022/07/12 11:50:55;;;;;;;2.58;1.75;;;;;;;;;;4997993;28;20050;-78
2022/07/12 11:53:23;;;;;;;2.88;2.03;;;;;;;;;;4985945;28;20371;-77
2022/07/12 11:55:50;;;;;;;3.67;2.03;;;;;;;;;;4997646;28;20047;-77
2022/07/12 11:58:17;;;;;;;3.63;2.40;;;;;;;;;;4996876;28;20042;-78
2022/07/12 12:00:44;;;;;;;4.60;2.17;;;;;;;;;;4997696;28;20101;-77
2022/07/12 12:03:10;;;;;;;4.78;2.15;;;;;;;;;;4996634;28;20050;-77
2022/07/12 12:05:37;;;;;;;2.53;2.00;;;;;;;;;;4992635;28;20073;-77
2022/07/12 12:08:04;;;;;;;3.65;2.10;;;;;;;;;;4997171;28;20092;-77
2022/07/12 12:10:30;;;;;;;4.07;2.20;;;;;;;;;;4995424;28;20535;-77
2022/07/12 12:12:57;;;;;;;3.17;2.00;;;;;;;;;;4996545;28;20042;-78
2022/07/12 12:15:24;;;;;;;3.83;1.92;;;;;;;;;;4988094;28;20097;-77
2022/07/12 12:17:56;;;;;;;4.05;2.30;;;;;;;;;;4991604;28;20068;-77
2022/07/12 12:20:23;;;;;;;6.38;2.33;;;;;;;;;;4996757;28;20049;-76
2022/07/12 12:22:50;;;;;;;2.53;2.10;;;;;;;;;;4997413;28;20034;-78
2022/07/12 12:25:17;;;;;;;2.00;1.88;;;;;;;;;;4996185;28;20509;-78
2022/07/12 12:27:43;;;;;;;3.63;2.05;;;;;;;;;;4996477;28;20038;-77
2022/07/12 12:30:09;;;;;;;4.65;2.03;;;;;;;;;;4996891;28;20046;-78
2022/07/12 12:32:46;;;;;;;3.63;1.92;;;;;;;;;;4996476;28;20140;-77
2022/07/12 12:35:14;;;;;;;3.67;2.25;;;;;;;;;;4996041;28;20111;-77
2022/07/12 12:37:40;;;;;;;3.70;1.98;;;;;;;;;;4995364;28;20046;-77
2022/07/12 12:40:07;;;;;;;5.82;2.10;;;;;;;;;;4995917;28;20038;-77
2022/07/12 12:42:33;;;;;;;21.50;3.45;;;;;;;;;;4980234;28;20041;-77
2022/07/12 12:45:00;;;;;;;2.00;1.90;;;;;;;;;;4997606;28;20046;-77
2022/07/12 12:47:33;;;;;;;2.63;1.92;;;;;;;;;;4997588;28;20038;-77
2022/07/12 12:50:02;;;;;;;5.05;2.25;;;;;;;;;;4997442;28;20061;-78
2022/07/12 12:52:31;;;;;;;3.63;1.80;;;;;;;;;;4996718;28;20411;-77
2022/07/12 12:54:58;;;;;;;1.20;1.10;;;;;;;;;;4989112;28;20077;-76
2022/07/12 12:57:25;;;;;;;3.00;1.20;;;;;;;;;;5004252;28;20034;-75
2022/07/12 12:59:52;;;;;;;4.95;1.27;;;;;;;;;;5004279;28;20172;-76
2022/07/12 13:02:20;;;;;;;3.15;1.20;;;;;;;;;;5001103;28;20112;-76
2022/07/12 13:04:46;;;;;;;4.28;1.50;;;;;;;;;;4996220;28;20100;-77
2022/07/12 13:07:12;;;;;;;2.90;1.50;;;;;;;;;;4995903;28;20042;-75
2022/07/12 13:09:39;;;;;;;2.78;1.25;;;;;;;;;;4996615;28;20050;-76
2022/07/12 13:12:05;;;;;;;1.30;1.20;;;;;;;;;;4996510;28;20042;-77
2022/07/12 13:14:31;;;;;;;1.30;1.20;;;;;;;;;;4996595;28;20386;-77
2022/07/12 13:16:57;;;;;;;1.52;1.17;;;;;;;;;;4997349;28;20528;-77
2022/07/12 13:19:24;;;;;;;1.63;1.35;;;;;;;;;;4999698;28;20057;-78
2022/07/12 13:21:51;;;;;;;2.28;1.23;;;;;;;;;;4996840;28;20080;-77
2022/07/12 13:24:17;;;;;;;1.45;1.20;;;;;;;;;;4990366;28;20121;-77
2022/07/12 13:26:43;;;;;;;4.07;1.40;;;;;;;;;;4997199;28;20169;-77
2022/07/12 13:29:10;;;;;;;2.90;1.35;;;;;;;;;;4996125;28;20049;-77
2022/07/12 13:31:36;;;;;;;2.55;1.20;;;;;;;;;;4996784;28;20038;-77
2022/07/12 13:34:05;;;;;;;2.33;1.80;;;;;;;;;;4997351;28;20128;-77
2022/07/12 13:36:32;;;;;;;4.60;1.75;;;;;;;;;;4996534;28;20436;-77
2022/07/12 13:40:10;;;;;;;12.20;1.42;;;;;;;;;;4996347;28;20481;-77
2022/07/12 13:41:44;;;;;;;1.30;1.02;;;;;;;;;;4995933;28;20038;-78
2022/07/12 13:44:10;;;;;;;2.10;1.10;;;;;;;;;;4987275;28;20046;-78
2022/07/12 13:46:36;;;;;;;2.55;1.20;;;;;;;;;;4988532;28;20054;-78
2022/07/12 13:49:02;;;;;;;1.27;1.08;;;;;;;;;;4995734;28;20056;-78
2022/07/12 13:51:28;;;;;;;1.00;1.00;;;;;;;;;;4995392;28;20531;-78
2022/07/12 13:53:55;;;;;;;2.38;1.33;;;;;;;;;;4994462;28;20117;-78
2022/07/12 13:56:21;;;;;;;3.47;1.33;;;;;;;;;;4995617;28;20140;-78
2022/07/12 13:58:48;;;;;;;3.45;1.20;;;;;;;;;;4994699;28;20045;-79
2022/07/12 14:01:14;;;;;;;2.17;1.20;;;;;;;;;;4995423;28;20088;-78
2022/07/12 14:03:40;;;;;;;1.20;1.10;;;;;;;;;;4994141;28;20066;-80
2022/07/12 14:06:06;;;;;;;19.80;2.00;;;;;;;;;;4994385;28;20042;-77
2022/07/12 14:08:32;;;;;;;4.60;1.60;;;;;;;;;;4993807;28;20497;-79
2022/07/12 14:10:59;;;;;;;7.32;1.63;;;;;;;;;;4993304;28;20053;-79
2022/07/12 14:13:25;;;;;;;2.50;1.15;;;;;;;;;;4994584;28;20042;-78
2022/07/12 14:15:51;;;;;;;1.38;1.27;;;;;;;;;;4993850;28;20034;-78
2022/07/12 14:18:18;;;;;;;2.95;1.20;;;;;;;;;;4994059;28;20046;-79
2022/07/12 14:20:44;;;;;;;2.08;1.52;;;;;;;;;;4994267;28;20046;-77
2022/07/12 14:23:13;;;;;;;2.45;1.45;;;;;;;;;;4986384;28;20050;-77
2022/07/12 14:25:39;;;;;;;2.88;1.30;;;;;;;;;;4989579;28;20489;-77
2022/07/12 14:28:05;;;;;;;3.92;1.38;;;;;;;;;;4989427;28;20071;-78
2022/07/12 14:30:32;;;;;;;4.43;1.20;;;;;;;;;;4993633;28;20046;-78
2022/07/12 14:32:58;;;;;;;3.80;1.30;;;;;;;;;;4992914;28;20432;-78
2022/07/12 14:35:24;;;;;;;3.40;1.60;;;;;;;;;;4993552;28;20034;-79
2022/07/12 14:37:50;;;;;;;3.97;1.20;;;;;;;;;;4993993;28;20050;-79
2022/07/12 14:40:16;;;;;;;2.85;1.30;;;;;;;;;;4982602;28;20043;-78
2022/07/12 14:42:44;;;;;;;1.63;1.30;;;;;;;;;;4991105;28;20129;-79
2022/07/12 14:45:10;;;;;;;4.35;1.63;;;;;;;;;;4993013;28;20420;-79
2022/07/12 14:47:36;;;;;;;4.70;1.48;;;;;;;;;;4987219;28;20081;-78
2022/07/12 14:50:04;;;;;;;1.23;1.05;;;;;;;;;;4993892;28;20042;-78
2022/07/12 14:52:31;;;;;;;2.83;1.50;;;;;;;;;;4989668;28;20034;-78
2022/07/12 14:54:57;;;;;;;2.53;1.10;;;;;;;;;;4989584;28;20041;-78
2022/07/12 14:57:23;;;;;;;3.03;1.38;;;;;;;;;;4993308;28;20061;-79
2022/07/12 14:59:49;;;;;;;4.75;1.33;;;;;;;;;;4991596;28;20039;-79